createdAt,value
2022-12-04T00:00:28.844Z,28.67
2022-12-04T00:02:55.488Z,29.90
2022-12-04T00:05:22.488Z,30.00
2022-12-04T00:07:49.009Z,30.07
2022-12-04T00:10:15.643Z,30.53
2022-12-04T00:15:26.802Z,29.43
2022-12-04T00:17:53.784Z,29.67
2022-12-04T00:20:20.984Z,30.70
2022-12-04T00:22:47.618Z,31.33
2022-12-04T00:25:14.319Z,30.83
2022-12-04T00:27:40.821Z,31.90
2022-12-04T00:30:07.888Z,31.17
2022-12-04T00:32:35.876Z,30.03
2022-12-04T00:35:02.404Z,31.73
2022-12-04T00:37:28.934Z,30.50
2022-12-04T00:42:39.685Z,30.67
2022-12-04T00:45:06.581Z,33.53
2022-12-04T00:47:33.247Z,31.20
2022-12-04T00:49:59.796Z,33.83
2022-12-04T00:52:28.479Z,32.33
2022-12-04T00:54:55.002Z,32.17
2022-12-04T00:57:23.845Z,29.90
2022-12-04T00:59:50.509Z,32.43
2022-12-04T01:02:17.118Z,30.93
2022-12-04T01:04:43.865Z,31.20
2022-12-04T01:07:10.464Z,31.20
2022-12-04T01:09:37.058Z,30.87
2022-12-04T01:12:03.587Z,30.90
2022-12-04T01:14:31.215Z,30.70
2022-12-04T01:16:57.878Z,29.40
2022-12-04T01:19:24.415Z,29.30
2022-12-04T01:21:51.583Z,29.97
2022-12-04T01:24:18.129Z,29.03
2022-12-04T01:26:44.914Z,30.13
2022-12-04T01:29:12.356Z,29.63
2022-12-04T01:31:39.037Z,28.83
2022-12-04T01:34:05.626Z,29.60
2022-12-04T01:39:16.213Z,29.47
2022-12-04T01:41:42.852Z,28.03
2022-12-04T01:44:19.794Z,28.33
2022-12-04T01:46:47.081Z,27.83
2022-12-04T01:49:15.448Z,29.13
2022-12-04T01:51:42.912Z,28.23
2022-12-04T01:56:58.355Z,28.00
2022-12-04T02:02:14.636Z,27.63
2022-12-04T02:04:42.652Z,26.70
2022-12-04T02:07:09.445Z,27.07
2022-12-04T02:09:36.119Z,28.20
2022-12-04T02:12:12.472Z,28.70
2022-12-04T02:14:42.602Z,27.50
2022-12-04T02:17:21.021Z,28.57
2022-12-04T02:19:54.141Z,27.17
2022-12-04T02:25:41.001Z,26.60
2022-12-04T02:28:14.704Z,26.10
2022-12-04T02:30:41.487Z,26.13
2022-12-04T02:33:13.983Z,25.67
2022-12-04T02:35:41.857Z,26.67
2022-12-04T02:38:14.523Z,26.80
2022-12-04T02:40:59.854Z,25.30
2022-12-04T02:46:21.945Z,26.33
2022-12-04T02:48:49.552Z,26.10
2022-12-04T02:51:16.570Z,26.50
2022-12-04T02:53:48.041Z,25.33
2022-12-04T02:56:15.893Z,27.57
2022-12-04T02:58:42.372Z,26.43
2022-12-04T03:01:19.734Z,25.93
2022-12-04T03:03:51.312Z,26.50
2022-12-04T03:06:17.812Z,26.40
2022-12-04T03:08:45.672Z,26.60
2022-12-04T03:11:12.222Z,27.53
2022-12-04T03:13:39.583Z,25.73
2022-12-04T03:16:07.916Z,27.67
2022-12-04T03:18:39.281Z,28.60
2022-12-04T03:21:10.245Z,26.73
2022-12-04T03:23:44.823Z,26.87
2022-12-04T03:29:09.753Z,25.70
2022-12-04T03:31:40.524Z,27.37
2022-12-04T03:34:07.590Z,26.87
2022-12-04T03:36:37.913Z,28.23
2022-12-04T03:39:24.825Z,27.63
2022-12-04T03:42:00.751Z,25.83
2022-12-04T03:44:56.732Z,27.03
2022-12-04T03:47:29.139Z,25.80
2022-12-04T03:52:50.384Z,27.17
2022-12-04T03:55:20.112Z,26.47
2022-12-04T03:57:46.620Z,26.87
2022-12-04T04:00:13.958Z,26.97
2022-12-04T04:05:26.245Z,27.80
2022-12-04T04:08:20.413Z,26.57
2022-12-04T04:10:47.600Z,27.50
2022-12-04T04:13:34.227Z,27.13
2022-12-04T04:16:19.515Z,27.17
2022-12-04T04:19:04.690Z,26.93
2022-12-04T04:21:50.911Z,25.90
2022-12-04T04:27:13.984Z,26.10
2022-12-04T04:29:40.566Z,28.90
2022-12-04T04:32:14.872Z,28.10
2022-12-04T04:37:40.916Z,25.97
2022-12-04T04:40:14.682Z,27.83
2022-12-04T04:42:44.213Z,26.77
2022-12-04T04:45:13.926Z,27.67
2022-12-04T04:47:54.290Z,27.13
2022-12-04T04:50:21.487Z,26.47
2022-12-04T04:52:49.227Z,27.03
2022-12-04T04:55:16.419Z,27.23
2022-12-04T04:57:42.955Z,25.97
2022-12-04T05:00:15.700Z,26.73
2022-12-04T05:02:42.375Z,28.70
2022-12-04T05:05:09.652Z,27.27
2022-12-04T05:07:36.228Z,26.63
2022-12-04T05:10:02.770Z,27.33
2022-12-04T05:12:29.515Z,27.30
2022-12-04T05:14:56.101Z,26.77
2022-12-04T05:17:22.703Z,26.20
2022-12-04T05:19:56.880Z,28.53
2022-12-04T05:22:25.505Z,27.80
2022-12-04T05:24:52.053Z,27.37
2022-12-04T05:30:02.380Z,30.43
2022-12-04T05:35:13.546Z,32.27
2022-12-04T05:40:24.227Z,30.30
2022-12-04T05:42:51.026Z,30.87
2022-12-04T05:45:17.745Z,30.80
2022-12-04T05:47:44.444Z,29.83
2022-12-04T05:50:11.827Z,27.57
2022-12-04T05:52:38.467Z,29.53
2022-12-04T05:55:05.258Z,28.37
2022-12-04T05:57:31.759Z,27.30
2022-12-04T05:59:58.623Z,26.03
2022-12-04T06:02:26.933Z,26.80
2022-12-04T06:04:53.695Z,26.50
2022-12-04T06:07:20.202Z,25.67
2022-12-04T06:09:46.885Z,27.17
2022-12-04T06:12:13.484Z,27.30
2022-12-04T06:14:40.223Z,26.70
2022-12-04T06:17:06.976Z,27.53
2022-12-04T06:19:33.585Z,27.90
2022-12-04T06:22:00.137Z,26.40
2022-12-04T06:24:26.731Z,26.33
2022-12-04T06:29:45.972Z,25.63
2022-12-04T06:32:17.769Z,26.57
2022-12-04T06:34:49.798Z,26.43
2022-12-04T06:37:16.756Z,24.93
2022-12-04T06:39:43.360Z,25.80
2022-12-04T06:42:10.509Z,25.33
2022-12-04T06:44:37.060Z,25.37
2022-12-04T06:47:03.601Z,25.10
2022-12-04T06:49:30.120Z,25.63
2022-12-04T06:51:57.070Z,24.93
2022-12-04T06:54:23.640Z,24.17
2022-12-04T06:56:50.462Z,25.03
2022-12-04T07:02:00.977Z,25.63
2022-12-04T07:04:27.565Z,26.40
2022-12-04T07:06:54.707Z,25.23
2022-12-04T07:09:21.224Z,26.23
2022-12-04T07:14:32.351Z,27.73
2022-12-04T07:19:42.969Z,26.33
2022-12-04T07:22:09.463Z,26.43
2022-12-04T07:24:36.443Z,26.43
2022-12-04T07:27:03.142Z,27.40
2022-12-04T07:29:29.784Z,28.20
2022-12-04T07:31:56.433Z,25.83
2022-12-04T07:34:23.485Z,27.40
2022-12-04T07:36:50.307Z,28.87
2022-12-04T07:39:16.882Z,28.20
2022-12-04T07:41:43.424Z,26.70
2022-12-04T07:46:54.510Z,26.60
2022-12-04T07:49:21.068Z,27.87
2022-12-04T07:51:47.665Z,26.67
2022-12-04T07:54:14.312Z,27.87
2022-12-04T07:56:40.903Z,27.07
2022-12-04T07:59:07.705Z,27.33
2022-12-04T08:01:34.462Z,26.37
2022-12-04T08:06:45.656Z,27.07
2022-12-04T08:09:12.856Z,27.80
2022-12-04T08:11:39.576Z,27.90
2022-12-04T08:14:06.259Z,27.17
2022-12-04T08:16:33.098Z,26.47
2022-12-04T08:18:59.762Z,26.80
2022-12-04T08:21:27.411Z,26.10
2022-12-04T08:26:39.165Z,27.10
2022-12-04T08:31:50.098Z,27.20
2022-12-04T08:37:01.700Z,26.63
2022-12-04T08:39:29.070Z,26.23
2022-12-04T08:41:57.322Z,29.43
2022-12-04T08:44:24.161Z,27.20
2022-12-04T08:46:50.970Z,30.10
2022-12-04T08:49:19.219Z,29.30
2022-12-04T08:51:47.427Z,27.97
2022-12-04T08:56:58.762Z,27.93
2022-12-04T09:02:10.636Z,27.43
2022-12-04T09:04:37.840Z,28.67
2022-12-04T09:07:04.402Z,27.40
2022-12-04T09:09:30.932Z,27.30
2022-12-04T09:11:57.762Z,27.40
2022-12-04T09:14:26.050Z,26.80
2022-12-04T09:16:53.268Z,25.63
2022-12-04T09:19:20.221Z,25.93
2022-12-04T09:21:47.392Z,26.63
2022-12-04T09:24:15.011Z,26.13
2022-12-04T09:26:43.439Z,26.43
2022-12-04T09:29:10.635Z,26.93
2022-12-04T09:31:37.763Z,29.47
2022-12-04T09:34:04.637Z,26.33
2022-12-04T09:36:31.438Z,27.37
2022-12-04T09:38:58.108Z,26.67
2022-12-04T09:41:41.496Z,27.63
2022-12-04T09:44:11.036Z,27.90
2022-12-04T09:46:39.443Z,29.27
2022-12-04T09:49:07.819Z,29.23
2022-12-04T09:51:35.249Z,28.23
2022-12-04T09:54:11.186Z,29.43
2022-12-04T09:56:37.848Z,30.10
2022-12-04T09:59:10.832Z,29.30
2022-12-04T10:01:45.503Z,26.37
2022-12-04T10:04:13.445Z,27.77
2022-12-04T10:06:46.162Z,26.67
2022-12-04T10:09:20.603Z,26.30
2022-12-04T10:12:07.521Z,25.93
2022-12-04T10:14:52.358Z,25.97
2022-12-04T10:17:37.882Z,25.00
2022-12-04T10:20:12.649Z,25.70
2022-12-04T10:25:40.561Z,25.27
2022-12-04T10:31:04.317Z,25.77
2022-12-04T10:33:33.764Z,26.03
2022-12-04T10:36:00.487Z,25.07
2022-12-04T10:38:46.110Z,26.00
2022-12-04T10:41:27.191Z,24.83
2022-12-04T10:43:53.868Z,27.20
2022-12-04T10:46:27.476Z,26.77
2022-12-04T10:49:04.948Z,28.27
2022-12-04T10:51:33.858Z,24.70
2022-12-04T10:54:00.372Z,24.40
2022-12-04T10:56:27.177Z,25.13
2022-12-04T10:59:00.753Z,23.57
2022-12-04T11:01:28.366Z,22.97
2022-12-04T11:04:06.330Z,24.23
2022-12-04T11:06:33.049Z,22.63
2022-12-04T11:08:59.723Z,24.43
2022-12-04T11:11:27.857Z,24.53
2022-12-04T11:14:01.518Z,22.67
2022-12-04T11:16:39.169Z,21.07
2022-12-04T11:19:22.497Z,21.30
2022-12-04T11:21:49.484Z,21.83
2022-12-04T11:24:19.246Z,22.77
2022-12-04T11:26:46.539Z,22.30
2022-12-04T11:29:14.424Z,22.23
2022-12-04T11:31:42.379Z,23.53
2022-12-04T11:34:09.301Z,22.77
2022-12-04T11:36:40.690Z,21.60
2022-12-04T11:39:13.449Z,21.93
2022-12-04T11:41:40.242Z,21.13
2022-12-04T11:44:07.243Z,21.87
2022-12-04T11:46:34.350Z,22.03
2022-12-04T11:49:03.626Z,22.13
2022-12-04T11:51:39.603Z,22.10
2022-12-04T11:54:25.199Z,21.80
2022-12-04T11:57:04.850Z,22.63
2022-12-04T11:59:41.045Z,22.57
2022-12-04T12:02:27.155Z,21.80
2022-12-04T12:05:12.283Z,22.80
2022-12-04T12:07:39.118Z,23.90
2022-12-04T12:10:32.270Z,22.93
2022-12-04T12:13:02.923Z,22.83
2022-12-04T12:15:41.811Z,22.83
2022-12-04T12:18:22.483Z,22.80
2022-12-04T12:20:55.314Z,23.70
2022-12-04T12:23:22.084Z,22.93
2022-12-04T12:25:52.350Z,21.43
2022-12-04T12:28:37.452Z,20.53
2022-12-04T12:31:19.152Z,22.33
2022-12-04T12:33:53.311Z,22.87
2022-12-04T12:36:21.940Z,22.03
2022-12-04T12:38:56.025Z,24.73
2022-12-04T12:41:37.036Z,23.43
2022-12-04T12:44:05.267Z,24.33
2022-12-04T12:46:35.938Z,22.60
2022-12-04T12:49:09.465Z,23.57
2022-12-04T12:51:46.254Z,23.37
2022-12-04T12:54:22.420Z,21.80
2022-12-04T12:56:54.155Z,23.10
2022-12-04T12:59:22.963Z,21.37
2022-12-04T13:02:02.977Z,23.03
2022-12-04T13:04:32.570Z,21.50
2022-12-04T13:07:22.026Z,22.47
2022-12-04T13:09:50.729Z,22.13
2022-12-04T13:12:17.359Z,23.17
2022-12-04T13:14:48.792Z,22.50
2022-12-04T13:17:36.215Z,20.87
2022-12-04T13:20:10.117Z,20.60
2022-12-04T13:23:06.709Z,20.50
2022-12-04T13:25:39.453Z,20.20
2022-12-04T13:28:24.741Z,22.07
2022-12-04T13:30:58.459Z,21.27
2022-12-04T13:33:39.596Z,20.53
2022-12-04T13:36:15.704Z,20.87
2022-12-04T13:38:42.713Z,21.77
2022-12-04T13:41:10.296Z,22.20
2022-12-04T13:43:37.453Z,20.93
2022-12-04T13:46:07.715Z,21.90
2022-12-04T13:48:39.729Z,21.83
2022-12-04T13:51:24.877Z,20.50
2022-12-04T13:54:01.387Z,21.37
2022-12-04T13:56:28.890Z,23.97
2022-12-04T13:58:59.263Z,22.13
2022-12-04T14:01:28.695Z,21.53
2022-12-04T14:03:57.559Z,22.90
2022-12-04T14:06:41.375Z,22.47
2022-12-04T14:09:27.759Z,21.93
2022-12-04T14:11:57.767Z,22.20
2022-12-04T14:14:25.729Z,21.57
2022-12-04T14:16:52.492Z,22.23
2022-12-04T14:19:30.069Z,24.00
2022-12-04T14:21:57.089Z,21.60
2022-12-04T14:24:32.889Z,21.73
2022-12-04T14:27:15.087Z,22.60
2022-12-04T14:30:10.354Z,22.83
2022-12-04T14:32:37.289Z,22.93
2022-12-04T14:35:03.968Z,23.83
2022-12-04T14:37:30.713Z,22.00
2022-12-04T14:39:57.875Z,23.57
2022-12-04T14:42:25.610Z,23.97
2022-12-04T14:44:53.556Z,23.10
2022-12-04T14:47:29.699Z,24.83
2022-12-04T14:50:11.753Z,24.60
2022-12-04T14:52:40.971Z,24.50
2022-12-04T14:55:33.940Z,25.13
2022-12-04T14:58:31.560Z,24.60
2022-12-04T15:01:05.969Z,25.10
2022-12-04T15:03:37.226Z,24.70
2022-12-04T15:06:05.815Z,24.10
2022-12-04T15:08:32.645Z,24.27
2022-12-04T15:11:20.272Z,26.10
2022-12-04T15:13:48.182Z,26.10
2022-12-04T15:16:21.750Z,26.93
2022-12-04T15:18:58.222Z,24.90
2022-12-04T15:21:25.099Z,26.00
2022-12-04T15:23:51.688Z,26.23
2022-12-04T15:26:19.051Z,26.53
2022-12-04T15:28:48.268Z,28.03
2022-12-04T15:31:20.920Z,26.63
2022-12-04T15:33:47.979Z,25.60
2022-12-04T15:36:16.829Z,25.33
2022-12-04T15:38:43.759Z,27.77
2022-12-04T15:41:28.509Z,26.00
2022-12-04T15:43:55.164Z,27.23
2022-12-04T15:46:22.431Z,26.40
2022-12-04T15:48:49.033Z,26.20
2022-12-04T15:51:16.008Z,27.37
2022-12-04T15:53:44.189Z,27.10
2022-12-04T15:56:17.208Z,26.87
2022-12-04T15:58:51.591Z,27.47
2022-12-04T16:04:02.520Z,29.57
2022-12-04T16:06:31.519Z,27.87
2022-12-04T16:09:13.305Z,28.17
2022-12-04T16:11:40.166Z,27.97
2022-12-04T16:14:09.623Z,27.00
2022-12-04T16:16:39.591Z,27.70
2022-12-04T16:19:08.637Z,26.43
2022-12-04T16:21:35.234Z,27.40
2022-12-04T16:24:02.725Z,27.73
2022-12-04T16:26:29.291Z,27.33
2022-12-04T16:28:55.923Z,30.00
2022-12-04T16:31:24.492Z,27.57
2022-12-04T16:33:51.208Z,28.03
2022-12-04T16:36:17.995Z,26.90
2022-12-04T16:38:44.842Z,27.93
2022-12-04T16:41:18.116Z,27.47
2022-12-04T16:43:44.767Z,25.50
2022-12-04T16:46:15.586Z,27.23
2022-12-04T16:48:42.796Z,29.13
2022-12-04T16:51:16.334Z,25.73
2022-12-04T16:53:43.184Z,27.13
2022-12-04T16:56:10.158Z,27.97
2022-12-04T16:58:36.993Z,27.13
2022-12-04T17:01:04.276Z,26.70
2022-12-04T17:03:32.631Z,27.40
2022-12-04T17:06:00.584Z,27.23
2022-12-04T17:08:28.070Z,28.17
2022-12-04T17:10:54.954Z,26.53
2022-12-04T17:13:23.283Z,28.33
2022-12-04T17:15:49.998Z,25.63
2022-12-04T17:18:21.349Z,26.73
2022-12-04T17:20:51.001Z,25.70
2022-12-04T17:23:18.199Z,27.67
2022-12-04T17:25:45.134Z,27.40
2022-12-04T17:28:12.008Z,26.70
2022-12-04T17:33:25.360Z,26.60
2022-12-04T17:35:54.807Z,25.93
2022-12-04T17:38:21.878Z,27.07
2022-12-04T17:40:58.770Z,26.70
2022-12-04T17:43:25.822Z,25.73
2022-12-04T17:45:55.100Z,25.30
2022-12-04T17:48:23.409Z,25.50
2022-12-04T17:50:50.031Z,27.00
2022-12-04T17:53:16.604Z,25.87
2022-12-04T17:55:43.214Z,26.03
2022-12-04T17:58:10.018Z,25.10
2022-12-04T18:00:36.821Z,25.47
2022-12-04T18:03:03.633Z,24.67
2022-12-04T18:05:30.600Z,26.13
2022-12-04T18:07:57.568Z,26.63
2022-12-04T18:13:09.157Z,25.87
2022-12-04T18:15:36.135Z,26.80
2022-12-04T18:18:03.013Z,26.30
2022-12-04T18:20:29.786Z,26.03
2022-12-04T18:22:56.803Z,26.77
2022-12-04T18:25:23.726Z,25.23
2022-12-04T18:27:51.494Z,26.70
2022-12-04T18:30:18.345Z,25.77
2022-12-04T18:32:47.996Z,24.43
2022-12-04T18:35:15.781Z,24.80
2022-12-04T18:37:43.140Z,25.87
2022-12-04T18:40:11.387Z,25.40
2022-12-04T18:42:38.613Z,24.57
2022-12-04T18:45:14.103Z,26.17
2022-12-04T18:47:41.233Z,23.93
2022-12-04T18:50:08.740Z,25.00
2022-12-04T18:55:24.145Z,24.23
2022-12-04T18:57:51.084Z,24.13
2022-12-04T19:00:17.780Z,26.43
2022-12-04T19:02:47.360Z,25.00
2022-12-04T19:08:02.248Z,24.87
2022-12-04T19:13:14.560Z,24.37
2022-12-04T19:15:42.136Z,25.73
2022-12-04T19:18:09.238Z,23.60
2022-12-04T19:20:36.253Z,24.20
2022-12-04T19:23:05.243Z,25.37
2022-12-04T19:25:31.854Z,23.70
2022-12-04T19:27:58.494Z,23.27
2022-12-04T19:30:25.091Z,24.37
2022-12-04T19:32:51.990Z,22.73
2022-12-04T19:35:18.889Z,24.20
2022-12-04T19:37:52.402Z,23.23
2022-12-04T19:40:19.708Z,22.63
2022-12-04T19:42:46.851Z,25.70
2022-12-04T19:45:13.554Z,24.37
2022-12-04T19:47:42.150Z,23.50
2022-12-04T19:50:09.243Z,25.13
2022-12-04T19:52:37.785Z,25.40
2022-12-04T19:55:04.879Z,24.20
2022-12-04T19:57:35.050Z,23.60
2022-12-04T20:00:02.344Z,23.87
2022-12-04T20:05:24.358Z,23.37
2022-12-04T20:07:52.683Z,23.53
2022-12-04T20:10:21.331Z,24.10
2022-12-04T20:12:49.300Z,24.30
2022-12-04T20:15:17.746Z,24.03
2022-12-04T20:17:45.905Z,24.73
2022-12-04T20:20:14.942Z,24.67
2022-12-04T20:22:41.718Z,27.53
2022-12-04T20:25:08.672Z,24.63
2022-12-04T20:27:35.698Z,22.50
2022-12-04T20:30:03.878Z,23.53
2022-12-04T20:32:33.320Z,24.13
2022-12-04T20:35:02.050Z,24.17
2022-12-04T20:37:33.275Z,23.40
2022-12-04T20:40:02.571Z,24.07
2022-12-04T20:42:33.507Z,22.27
2022-12-04T20:47:45.617Z,22.73
2022-12-04T20:50:14.031Z,22.93
2022-12-04T20:52:40.678Z,22.13
2022-12-04T20:55:08.319Z,22.27
2022-12-04T21:00:20.336Z,23.57
2022-12-04T21:05:31.744Z,21.33
2022-12-04T21:10:42.810Z,20.90
2022-12-04T21:16:15.201Z,23.67
2022-12-04T21:18:42.428Z,22.90
2022-12-04T21:21:09.157Z,22.77
2022-12-04T21:23:36.483Z,21.70
2022-12-04T21:26:03.516Z,22.33
2022-12-04T21:28:31.723Z,20.67
2022-12-04T21:31:05.832Z,21.23
2022-12-04T21:33:33.085Z,21.27
2022-12-04T21:36:03.527Z,20.17
2022-12-04T21:38:34.195Z,21.20
2022-12-04T21:41:01.243Z,21.27
2022-12-04T21:43:31.536Z,19.30
2022-12-04T21:46:07.411Z,19.47
2022-12-04T21:48:36.539Z,20.90
2022-12-04T21:51:21.203Z,20.93
2022-12-04T21:53:55.128Z,20.30
2022-12-04T21:56:22.924Z,21.10
2022-12-04T21:58:50.453Z,20.27
2022-12-04T22:01:17.646Z,19.73
2022-12-04T22:06:29.724Z,19.50
2022-12-04T22:11:43.889Z,17.60
2022-12-04T22:16:56.109Z,19.30
2022-12-04T22:22:12.744Z,19.23
2022-12-04T22:27:26.279Z,17.63
2022-12-04T22:29:54.262Z,17.93
2022-12-04T22:32:22.594Z,17.73
2022-12-04T22:34:49.763Z,17.13
2022-12-04T22:37:16.889Z,17.80
2022-12-04T22:39:44.123Z,18.63
2022-12-04T22:42:12.892Z,19.13
2022-12-04T22:47:25.773Z,19.47
2022-12-04T22:52:37.393Z,18.80
2022-12-04T22:57:50.519Z,18.27
2022-12-04T23:00:17.568Z,18.77
2022-12-04T23:02:45.183Z,18.07
2022-12-04T23:05:12.295Z,18.00
2022-12-04T23:07:42.044Z,17.77
2022-12-04T23:10:12.132Z,18.90
2022-12-04T23:12:39.676Z,18.23
2022-12-04T23:15:07.065Z,18.60
2022-12-04T23:17:33.774Z,18.70
2022-12-04T23:20:00.584Z,17.87
2022-12-04T23:22:27.168Z,18.43
2022-12-04T23:24:53.652Z,18.40
2022-12-04T23:30:04.392Z,17.13
2022-12-04T23:35:14.633Z,15.83
2022-12-04T23:37:41.140Z,19.27
2022-12-04T23:40:08.055Z,17.37
2022-12-04T23:42:34.628Z,18.63
2022-12-04T23:45:01.835Z,16.83
2022-12-04T23:47:28.382Z,17.23
2022-12-04T23:49:55.189Z,16.90
2022-12-04T23:52:22.273Z,16.17
2022-12-04T23:54:48.754Z,15.47
2022-12-04T23:57:15.253Z,16.93
2022-12-04T23:59:41.788Z,16.60
